Time;durP1;ratioP1;P1;durP2;ratioP2;P2;SDS_P1;SDS_P2;PMS_P1;PMS_P2;Temp;Humidity;BMP_temperature;BMP_pressure;BME280_temperature;BME280_humidity;BME280_pressure;Samples;Min_cycle;Max_cycle;Signal;HPM_P1;HPM_P2
2022/07/13 00:00:11;;;;;;;0.50;0.50;;;;;;;;;;12625359;28;19923;-75
2022/07/13 00:06:13;;;;;;;0.50;0.50;;;;;;;;;;12625488;28;20345;-80
2022/07/13 00:12:15;;;;;;;;;;;;;;;;;;12643935;28;20050;-80
2022/07/13 00:18:17;;;;;;;0.80;0.52;;;;;;;;;;12625388;28;20374;-80
2022/07/13 00:24:19;;;;;;;0.40;0.40;;;;;;;;;;12626080;28;20028;-76
2022/07/13 00:30:21;;;;;;;0.60;0.60;;;;;;;;;;12643211;28;20032;-77
2022/07/13 00:36:22;;;;;;;0.95;0.50;;;;;;;;;;12642812;28;20388;-76
2022/07/13 00:42:24;;;;;;;;;;;;;;;;;;12647200;28;20519;-75
2022/07/13 00:48:26;;;;;;;1.33;0.80;;;;;;;;;;12616558;28;20165;-76
2022/07/13 00:54:29;;;;;;;0.50;0.50;;;;;;;;;;12632960;28;20036;-75
2022/07/13 01:00:31;;;;;;;0.40;0.32;;;;;;;;;;12632417;28;20040;-76
2022/07/13 01:06:33;;;;;;;0.40;0.40;;;;;;;;;;12615959;28;20043;-76
2022/07/13 01:12:36;;;;;;;0.60;0.60;;;;;;;;;;12649574;28;20043;-76
2022/07/13 01:18:37;;;;;;;2.55;0.40;;;;;;;;;;12631430;28;20484;-76
2022/07/13 01:24:39;;;;;;;0.65;0.60;;;;;;;;;;12649437;28;20047;-76
2022/07/13 01:30:41;;;;;;;;;;;;;;;;;;12632144;28;20059;-76
2022/07/13 01:36:43;;;;;;;1.13;0.60;;;;;;;;;;12631445;28;20099;-80
2022/07/13 01:42:46;;;;;;;1.25;0.50;;;;;;;;;;12648510;28;20044;-76
2022/07/13 01:48:48;;;;;;;1.00;0.45;;;;;;;;;;12630508;28;20032;-75
2022/07/13 01:54:52;;;;;;;0.85;0.40;;;;;;;;;;12630353;28;20047;-75
2022/07/13 02:00:55;;;;;;;;;;;;;;;;;;12630540;28;20057;-80
2022/07/13 02:06:57;;;;;;;0.98;0.47;;;;;;;;;;12647141;28;19919;-76
2022/07/13 02:13:00;;;;;;;1.45;0.60;;;;;;;;;;12612614;28;20044;-80
2022/07/13 02:19:02;;;;;;;0.50;0.50;;;;;;;;;;12647255;28;20051;-80
2022/07/13 02:25:07;;;;;;;0.75;0.70;;;;;;;;;;12612724;28;20024;-76
2022/07/13 02:31:09;;;;;;;1.65;0.60;;;;;;;;;;12647063;28;20040;-80
2022/07/13 02:37:11;;;;;;;0.73;0.50;;;;;;;;;;12628828;28;20047;-80
2022/07/13 02:43:13;;;;;;;1.33;0.55;;;;;;;;;;12611350;28;20063;-80
2022/07/13 02:49:18;;;;;;;0.57;0.52;;;;;;;;;;12611734;28;20047;-76
2022/07/13 02:55:20;;;;;;;;;;;;;;;;;;12645672;28;20059;-79
2022/07/13 03:01:22;;;;;;;0.43;0.43;;;;;;;;;;12610990;28;19923;-80
2022/07/13 03:07:24;;;;;;;0.68;0.60;;;;;;;;;;12626731;28;20055;-76
2022/07/13 03:13:27;;;;;;;0.60;0.60;;;;;;;;;;12626634;28;20036;-80
2022/07/13 03:19:30;;;;;;;1.92;0.77;;;;;;;;;;12610339;28;20047;-76
2022/07/13 03:25:33;;;;;;;0.70;0.60;;;;;;;;;;12626831;28;20032;-75
2022/07/13 03:31:34;;;;;;;0.63;0.63;;;;;;;;;;12626882;28;20035;-75
2022/07/13 03:37:37;;;;;;;0.73;0.50;;;;;;;;;;12610463;28;20369;-80
2022/07/13 03:43:39;;;;;;;1.00;0.65;;;;;;;;;;12626792;28;20117;-76
2022/07/13 03:49:42;;;;;;;1.25;0.63;;;;;;;;;;12625715;28;20028;-80
2022/07/13 03:55:45;;;;;;;2.00;0.88;;;;;;;;;;12626329;28;20051;-75
2022/07/13 04:01:47;;;;;;;1.10;0.80;;;;;;;;;;12609984;28;20032;-76
2022/07/13 04:07:49;;;;;;;0.68;0.68;;;;;;;;;;12626929;28;20040;-79
2022/07/13 04:13:51;;;;;;;0.80;0.70;;;;;;;;;;12626187;28;20043;-80
2022/07/13 04:19:53;;;;;;;0.88;0.77;;;;;;;;;;12634559;28;20048;-76
2022/07/13 04:25:57;;;;;;;1.38;0.75;;;;;;;;;;12635263;28;20515;-80
2022/07/13 04:31:59;;;;;;;0.80;0.73;;;;;;;;;;12635268;28;20424;-80
2022/07/13 04:38:01;;;;;;;0.98;0.70;;;;;;;;;;12653164;28;20052;-79
2022/07/13 04:44:04;;;;;;;1.38;1.20;;;;;;;;;;12635314;28;20470;-80
2022/07/13 04:50:06;;;;;;;0.40;0.40;;;;;;;;;;12652075;28;20032;-76
2022/07/13 04:56:09;;;;;;;1.40;1.30;;;;;;;;;;12634079;28;20044;-76
2022/07/13 05:02:12;;;;;;;1.23;1.05;;;;;;;;;;12633773;28;20468;-76
2022/07/13 05:08:13;;;;;;;;;;;;;;;;;;12634610;28;20498;-79
2022/07/13 05:14:15;;;;;;;1.23;1.13;;;;;;;;;;12616141;28;19912;-81
2022/07/13 05:20:17;;;;;;;;;;;;;;;;;;12633886;28;20048;-81
2022/07/13 05:26:25;;;;;;;0.75;0.70;;;;;;;;;;12616456;28;19908;-81
2022/07/13 05:32:27;;;;;;;1.15;1.02;;;;;;;;;;12615476;28;20042;-77
2022/07/13 05:38:31;;;;;;;1.00;0.90;;;;;;;;;;12632129;28;20040;-77
2022/07/13 05:44:33;;;;;;;1.08;1.00;;;;;;;;;;12631465;28;20036;-81
2022/07/13 05:50:34;;;;;;;;;;;;;;;;;;12631550;28;20028;-81
2022/07/13 05:56:37;;;;;;;1.23;0.50;;;;;;;;;;12630504;28;19920;-77
2022/07/13 06:02:39;;;;;;;;;;;;;;;;;;12631341;28;20028;-81
2022/07/13 06:08:41;;;;;;;0.70;0.68;;;;;;;;;;12613479;28;19958;-77
2022/07/13 06:14:43;;;;;;;0.57;0.57;;;;;;;;;;12646703;28;20404;-77
2022/07/13 06:20:44;;;;;;;;;;;;;;;;;;12647291;28;20047;-77
2022/07/13 06:26:46;;;;;;;0.90;0.70;;;;;;;;;;12648050;28;20394;-77
2022/07/13 06:32:47;;;;;;;;;;;;;;;;;;12647457;28;20032;-77
2022/07/13 06:38:49;;;;;;;0.50;0.50;;;;;;;;;;12628016;28;19922;-77
2022/07/13 06:44:51;;;;;;;0.95;0.50;;;;;;;;;;12610952;28;20040;-77
2022/07/13 06:50:53;;;;;;;0.60;0.43;;;;;;;;;;12610815;28;20035;-77
2022/07/13 06:56:55;;;;;;;;;;;;;;;;;;12646470;28;20492;-81
2022/07/13 07:02:56;;;;;;;0.68;0.60;;;;;;;;;;12610307;28;19930;-81
2022/07/13 07:08:58;;;;;;;0.70;0.57;;;;;;;;;;12643440;28;20058;-77
2022/07/13 07:15:00;;;;;;;0.40;0.40;;;;;;;;;;12643790;28;20043;-81
2022/07/13 07:21:02;;;;;;;0.43;0.40;;;;;;;;;;12624402;28;20051;-81
2022/07/13 07:27:07;;;;;;;0.88;0.50;;;;;;;;;;12624571;28;20028;-77
2022/07/13 07:33:09;;;;;;;0.60;0.50;;;;;;;;;;12642102;28;20035;-77
2022/07/13 07:39:12;;;;;;;1.20;0.40;;;;;;;;;;12623626;28;20407;-81
2022/07/13 07:45:14;;;;;;;0.40;0.40;;;;;;;;;;12642042;28;20043;-78
2022/07/13 07:51:16;;;;;;;1.70;0.60;;;;;;;;;;12646608;28;20036;-77
2022/07/13 07:57:18;;;;;;;1.10;0.70;;;;;;;;;;12617265;28;20048;-77
2022/07/13 08:03:20;;;;;;;0.55;0.55;;;;;;;;;;12652117;28;20071;-81
2022/07/13 08:09:21;;;;;;;0.60;0.52;;;;;;;;;;12617778;28;20384;-80
2022/07/13 08:15:23;;;;;;;1.58;0.50;;;;;;;;;;12651497;28;20032;-81
2022/07/13 08:21:26;;;;;;;0.38;0.38;;;;;;;;;;12651454;28;20476;-77
2022/07/13 08:27:28;;;;;;;0.60;0.40;;;;;;;;;;12650770;28;20031;-77
2022/07/13 08:40:00;;;;;;;0.40;0.38;;;;;;;;;;12612369;28;20055;-81
2022/07/13 08:46:03;;;;;;;2.05;0.85;;;;;;;;;;12649867;28;20028;-78
2022/07/13 08:52:05;;;;;;;1.38;0.50;;;;;;;;;;12649393;28;20506;-82
2022/07/13 08:58:08;;;;;;;0.65;0.40;;;;;;;;;;12631126;28;20044;-81
2022/07/13 09:04:13;;;;;;;1.90;0.60;;;;;;;;;;12647541;28;20028;-81
2022/07/13 09:10:15;;;;;;;2.15;0.38;;;;;;;;;;12649242;28;20032;-77
2022/07/13 09:16:24;;;;;;;2.20;0.70;;;;;;;;;;12630327;28;20054;-81
2022/07/13 09:22:26;;;;;;;0.73;0.60;;;;;;;;;;12647955;28;20503;-81
2022/07/13 09:28:28;;;;;;;1.45;0.65;;;;;;;;;;12628742;28;20028;-81
2022/07/13 09:34:52;;;;;;;1.58;0.60;;;;;;;;;;12628141;28;20032;-81
2022/07/13 09:40:54;;;;;;;0.85;0.60;;;;;;;;;;12647233;28;20047;-80
2022/07/13 09:46:55;;;;;;;1.13;0.47;;;;;;;;;;12646725;28;20036;-76
2022/07/13 09:52:57;;;;;;;0.32;0.30;;;;;;;;;;12646356;28;20036;-82
2022/07/13 09:59:03;;;;;;;1.33;0.40;;;;;;;;;;12627363;28;20040;-81
2022/07/13 10:05:06;;;;;;;0.40;0.40;;;;;;;;;;12610425;28;20396;-81
2022/07/13 10:11:09;;;;;;;1.30;0.40;;;;;;;;;;12627457;28;20039;-80
2022/07/13 10:17:12;;;;;;;0.30;0.30;;;;;;;;;;12627189;28;20506;-77
2022/07/13 10:23:21;;;;;;;0.40;0.40;;;;;;;;;;12627016;28;20035;-81
2022/07/13 10:29:26;;;;;;;0.77;0.70;;;;;;;;;;12610385;28;20036;-77
2022/07/13 10:35:47;;;;;;;1.27;0.60;;;;;;;;;;12626759;28;20504;-81
2022/07/13 10:41:57;;;;;;;1.13;0.52;;;;;;;;;;12643951;28;20052;-81
2022/07/13 10:48:04;;;;;;;1.02;0.50;;;;;;;;;;12625887;28;20490;-77
2022/07/13 10:54:07;;;;;;;1.08;0.55;;;;;;;;;;12649452;28;20027;-81
2022/07/13 11:00:19;;;;;;;0.70;0.60;;;;;;;;;;12627710;28;20044;-77
2022/07/13 11:06:24;;;;;;;1.20;0.60;;;;;;;;;;12646144;28;20054;-77
2022/07/13 11:12:26;;;;;;;1.10;0.63;;;;;;;;;;12644585;28;20496;-78
2022/07/13 11:18:29;;;;;;;0.55;0.50;;;;;;;;;;12624605;28;20044;-81
2022/07/13 11:30:57;;;;;;;1.45;0.70;;;;;;;;;;12643284;28;20047;-81
2022/07/13 11:37:03;;;;;;;1.00;0.90;;;;;;;;;;12645331;28;20040;-77
2022/07/13 11:43:05;;;;;;;0.60;0.60;;;;;;;;;;12624471;28;20059;-81
2022/07/13 11:49:07;;;;;;;1.33;0.77;;;;;;;;;;12642297;28;20039;-77
2022/07/13 11:55:09;;;;;;;0.60;0.60;;;;;;;;;;12642151;28;20032;-77
2022/07/13 12:01:12;;;;;;;1.38;0.68;;;;;;;;;;12642186;28;20044;-81
2022/07/13 12:07:14;;;;;;;1.30;0.70;;;;;;;;;;12643628;28;20036;-78
2022/07/13 12:13:17;;;;;;;0.95;0.50;;;;;;;;;;12641853;28;20043;-81
2022/07/13 12:19:19;;;;;;;0.40;0.40;;;;;;;;;;12607031;28;20106;-77
2022/07/13 12:25:25;;;;;;;1.05;0.73;;;;;;;;;;12641851;28;20182;-77
2022/07/13 12:31:26;;;;;;;0.60;0.60;;;;;;;;;;12641433;28;20397;-77
2022/07/13 12:37:35;;;;;;;0.70;0.47;;;;;;;;;;12644227;28;20047;-77
2022/07/13 12:43:36;;;;;;;0.63;0.60;;;;;;;;;;12631429;28;20410;-76
2022/07/13 12:49:39;;;;;;;1.10;0.77;;;;;;;;;;12630684;28;20028;-77
2022/07/13 12:55:50;;;;;;;1.27;0.73;;;;;;;;;;12648993;28;20399;-80
2022/07/13 13:01:52;;;;;;;;;;;;;;;;;;12631583;28;20385;-80
2022/07/13 13:07:53;;;;;;;1.52;0.60;;;;;;;;;;12650349;28;19915;-77
2022/07/13 13:13:55;;;;;;;0.38;0.38;;;;;;;;;;12648013;28;20044;-77
2022/07/13 13:19:57;;;;;;;3.65;0.52;;;;;;;;;;12648489;28;20036;-81
2022/07/13 13:25:58;;;;;;;0.50;0.50;;;;;;;;;;12648245;28;20039;-77
2022/07/13 13:32:00;;;;;;;0.50;0.50;;;;;;;;;;12629821;28;20032;-80
2022/07/13 13:38:02;;;;;;;0.70;0.43;;;;;;;;;;12647926;28;20071;-77
2022/07/13 13:44:04;;;;;;;1.05;0.60;;;;;;;;;;12647499;28;20048;-77
2022/07/13 13:50:05;;;;;;;0.95;0.57;;;;;;;;;;12628270;28;20044;-80
2022/07/13 13:56:07;;;;;;;1.17;0.70;;;;;;;;;;12646736;28;20032;-81
2022/07/13 14:02:09;;;;;;;0.52;0.43;;;;;;;;;;12631082;28;20603;-81
2022/07/13 14:08:11;;;;;;;0.77;0.77;;;;;;;;;;12630613;28;20032;-79
2022/07/13 14:14:12;;;;;;;1.02;0.57;;;;;;;;;;12628376;28;20047;-78
2022/07/13 14:20:14;;;;;;;0.73;0.45;;;;;;;;;;12645162;28;20054;-77
2022/07/13 14:26:16;;;;;;;0.82;0.70;;;;;;;;;;12645055;28;20472;-77
2022/07/13 14:32:18;;;;;;;0.60;0.30;;;;;;;;;;12644697;28;20411;-81
2022/07/13 14:38:20;;;;;;;2.40;0.50;;;;;;;;;;12645032;28;20051;-81
2022/07/13 14:44:22;;;;;;;1.27;0.32;;;;;;;;;;12644288;28;20052;-78
2022/07/13 14:50:24;;;;;;;0.45;0.40;;;;;;;;;;12608752;28;20031;-81
2022/07/13 14:56:26;;;;;;;0.52;0.40;;;;;;;;;;12609007;28;20039;-81
2022/07/13 15:02:27;;;;;;;0.20;0.20;;;;;;;;;;12624381;28;20055;-81
2022/07/13 15:08:29;;;;;;;0.52;0.40;;;;;;;;;;12643144;28;20039;-82
2022/07/13 15:14:31;;;;;;;0.30;0.30;;;;;;;;;;12644807;28;20039;-82
2022/07/13 15:20:32;;;;;;;1.08;0.35;;;;;;;;;;12626267;28;20044;-81
2022/07/13 15:26:34;;;;;;;0.20;0.20;;;;;;;;;;12644400;28;20479;-77
2022/07/13 15:32:36;;;;;;;0.70;0.20;;;;;;;;;;12627538;28;20073;-79
2022/07/13 15:38:40;;;;;;;1.48;0.25;;;;;;;;;;12645072;28;20353;-77
2022/07/13 15:44:42;;;;;;;0.40;0.40;;;;;;;;;;12644529;28;20040;-81
2022/07/13 15:50:45;;;;;;;0.30;0.20;;;;;;;;;;12644447;28;20428;-80
2022/07/13 15:56:47;;;;;;;0.32;0.20;;;;;;;;;;12626059;28;20036;-81
2022/07/13 16:02:49;;;;;;;1.20;0.30;;;;;;;;;;12644210;28;20071;-76
2022/07/13 16:08:51;;;;;;;1.17;0.35;;;;;;;;;;12644725;28;20036;-81
2022/07/13 16:14:52;;;;;;;0.20;0.20;;;;;;;;;;12634631;28;20043;-80
2022/07/13 16:20:54;;;;;;;0.47;0.25;;;;;;;;;;12635293;28;20040;-76
2022/07/13 16:26:56;;;;;;;1.27;0.40;;;;;;;;;;12618921;28;20032;-78
2022/07/13 16:32:58;;;;;;;0.70;0.20;;;;;;;;;;12653109;28;20043;-77
2022/07/13 16:39:00;;;;;;;0.32;0.28;;;;;;;;;;12634058;28;20048;-80
2022/07/13 16:45:01;;;;;;;0.30;0.20;;;;;;;;;;12652033;28;20032;-76
2022/07/13 16:51:03;;;;;;;1.00;0.22;;;;;;;;;;12651706;28;20039;-80
2022/07/13 16:57:05;;;;;;;0.98;0.28;;;;;;;;;;12652035;28;20047;-81
2022/07/13 17:03:06;;;;;;;0.52;0.32;;;;;;;;;;12651499;28;20032;-76
2022/07/13 17:09:08;;;;;;;0.80;0.20;;;;;;;;;;12652114;28;20372;-81
2022/07/13 17:15:10;;;;;;;0.98;0.17;;;;;;;;;;12649813;28;20036;-77
2022/07/13 17:21:13;;;;;;;0.22;0.22;;;;;;;;;;12648129;28;20040;-81
2022/07/13 17:27:14;;;;;;;0.70;0.30;;;;;;;;;;12648266;28;20043;-81
2022/07/13 17:33:16;;;;;;;1.20;0.45;;;;;;;;;;12613451;28;20044;-76
2022/07/13 17:39:18;;;;;;;0.55;0.35;;;;;;;;;;12648263;28;20064;-76
2022/07/13 17:45:19;;;;;;;0.52;0.30;;;;;;;;;;12629848;28;20044;-80
2022/07/13 17:51:21;;;;;;;0.90;0.10;;;;;;;;;;12647209;28;20032;-76
2022/07/13 17:57:23;;;;;;;0.60;0.20;;;;;;;;;;12612135;28;20044;-81
2022/07/13 18:03:25;;;;;;;0.95;0.40;;;;;;;;;;12647325;28;20046;-77
2022/07/13 18:09:26;;;;;;;3.20;0.50;;;;;;;;;;12647696;28;20032;-80
2022/07/13 18:15:28;;;;;;;0.40;0.20;;;;;;;;;;12646640;28;20710;-79
2022/07/13 18:21:30;;;;;;;0.98;0.30;;;;;;;;;;12627485;28;20043;-76
2022/07/13 18:27:32;;;;;;;1.80;0.40;;;;;;;;;;12610515;28;20419;-77
2022/07/13 18:33:33;;;;;;;0.70;0.22;;;;;;;;;;12644248;28;20388;-76
2022/07/13 18:39:35;;;;;;;2.63;0.30;;;;;;;;;;12627006;28;20411;-80
2022/07/13 18:45:37;;;;;;;1.08;0.32;;;;;;;;;;12644403;28;20411;-80
2022/07/13 18:51:39;;;;;;;1.75;0.30;;;;;;;;;;12625721;28;20032;-81
2022/07/13 18:57:41;;;;;;;0.65;0.20;;;;;;;;;;12643433;28;20050;-76
2022/07/13 19:03:44;;;;;;;0.38;0.30;;;;;;;;;;12643222;28;20039;-81
2022/07/13 19:09:45;;;;;;;1.35;0.20;;;;;;;;;;12644432;28;20476;-76
2022/07/13 19:15:47;;;;;;;0.55;0.30;;;;;;;;;;12643360;28;20039;-77
2022/07/13 19:21:49;;;;;;;1.60;0.40;;;;;;;;;;12642608;28;20044;-81
2022/07/13 19:27:51;;;;;;;0.60;0.22;;;;;;;;;;12642984;28;20039;-80
2022/07/13 19:33:52;;;;;;;1.13;0.38;;;;;;;;;;12642490;28;20024;-81
2022/07/13 19:39:55;;;;;;;1.55;0.30;;;;;;;;;;12623809;28;20407;-81
2022/07/13 19:45:56;;;;;;;1.55;0.30;;;;;;;;;;12609646;28;20043;-80
2022/07/13 19:51:58;;;;;;;0.40;0.40;;;;;;;;;;12634054;28;20047;-76
2022/07/13 19:58:01;;;;;;;0.95;0.30;;;;;;;;;;12651840;28;20036;-81
2022/07/13 20:04:02;;;;;;;2.33;0.40;;;;;;;;;;12651656;28;20044;-76
2022/07/13 20:10:05;;;;;;;0.30;0.30;;;;;;;;;;12633829;28;20029;-81
2022/07/13 20:16:07;;;;;;;0.47;0.30;;;;;;;;;;12651507;28;20387;-81
2022/07/13 20:22:09;;;;;;;1.75;0.40;;;;;;;;;;12632985;28;20043;-81
2022/07/13 20:28:11;;;;;;;0.80;0.50;;;;;;;;;;12616227;28;20028;-81
2022/07/13 20:34:13;;;;;;;0.40;0.40;;;;;;;;;;12616324;28;20507;-77
2022/07/13 20:40:15;;;;;;;0.40;0.40;;;;;;;;;;12634569;28;20044;-82
2022/07/13 20:46:16;;;;;;;0.70;0.70;;;;;;;;;;12616522;28;20043;-77
2022/07/13 20:52:18;;;;;;;1.73;0.77;;;;;;;;;;12633839;28;20032;-76
2022/07/13 20:58:20;;;;;;;2.97;0.70;;;;;;;;;;12616147;28;20047;-80
2022/07/13 21:04:21;;;;;;;1.80;1.02;;;;;;;;;;12633862;28;20032;-80
2022/07/13 21:10:23;;;;;;;0.90;0.80;;;;;;;;;;12633870;28;20040;-76
2022/07/13 21:16:25;;;;;;;0.70;0.68;;;;;;;;;;12616644;28;20039;-76
2022/07/13 21:22:27;;;;;;;0.68;0.65;;;;;;;;;;12615686;28;20385;-77
2022/07/13 21:28:29;;;;;;;0.63;0.60;;;;;;;;;;12650361;28;20039;-77
2022/07/13 21:34:31;;;;;;;0.98;0.77;;;;;;;;;;12650247;28;20036;-77
2022/07/13 21:40:33;;;;;;;1.77;0.68;;;;;;;;;;12650221;28;20051;-78
2022/07/13 21:46:35;;;;;;;1.42;0.65;;;;;;;;;;12649819;28;20039;-77
2022/07/13 21:52:37;;;;;;;1.08;0.65;;;;;;;;;;12631408;28;20039;-81
2022/07/13 21:58:38;;;;;;;1.05;0.63;;;;;;;;;;12614533;28;20048;-82
2022/07/13 22:04:42;;;;;;;1.40;0.60;;;;;;;;;;12630772;28;20043;-81
2022/07/13 22:11:03;;;;;;;0.82;0.50;;;;;;;;;;12649466;28;20365;-78
2022/07/13 22:17:23;;;;;;;0.70;0.60;;;;;;;;;;12648744;28;20028;-82
2022/07/13 22:23:44;;;;;;;0.67;0.50;;;;;;;;;;12629967;28;20260;-81
2022/07/13 22:30:04;;;;;;;0.90;0.70;;;;;;;;;;12647599;28;20035;-76
2022/07/13 22:36:25;;;;;;;1.02;0.65;;;;;;;;;;12629616;28;20028;-77
2022/07/13 22:42:45;;;;;;;1.70;0.73;;;;;;;;;;12647268;28;20052;-81
2022/07/13 22:49:06;;;;;;;0.30;0.30;;;;;;;;;;12646801;28;20028;-81
2022/07/13 22:55:26;;;;;;;0.70;0.70;;;;;;;;;;12646958;28;20043;-78
2022/07/13 23:01:46;;;;;;;0.82;0.70;;;;;;;;;;12646116;28;20048;-80
2022/07/13 23:08:07;;;;;;;0.73;0.60;;;;;;;;;;12612164;28;20372;-76
2022/07/13 23:14:27;;;;;;;1.15;0.77;;;;;;;;;;12611294;28;20043;-81
2022/07/13 23:20:47;;;;;;;1.10;0.73;;;;;;;;;;12644811;28;20044;-81
2022/07/13 23:27:08;;;;;;;0.22;0.22;;;;;;;;;;12627422;28;20042;-81
2022/07/13 23:33:10;;;;;;;0.50;0.47;;;;;;;;;;12627604;28;20035;-77
2022/07/13 23:39:12;;;;;;;1.08;0.68;;;;;;;;;;12644870;28;20048;-77
2022/07/13 23:45:14;;;;;;;0.77;0.77;;;;;;;;;;12627069;28;20032;-77
2022/07/13 23:51:16;;;;;;;0.52;0.52;;;;;;;;;;12644958;28;20036;-81
2022/07/13 23:57:18;;;;;;;0.65;0.65;;;;;;;;;;12626735;28;20040;-76
